createdAt,value
2022-08-03T00:03:23.860Z,97762.44
2022-08-03T00:13:26.850Z,97759.13
2022-08-03T00:23:51.129Z,97755.88
2022-08-03T00:33:58.108Z,97748.81
2022-08-03T00:44:01.962Z,97753.16
2022-08-03T00:54:04.934Z,97759.50
2022-08-03T01:04:07.765Z,97755.34
2022-08-03T01:14:18.897Z,97752.34
2022-08-03T01:24:49.604Z,97745.19
2022-08-03T01:34:59.922Z,97742.47
2022-08-03T01:45:03.652Z,97734.38
2022-08-03T01:55:07.768Z,97735.63
2022-08-03T02:05:11.877Z,97733.78
2022-08-03T02:15:16.412Z,97727.69
2022-08-03T02:25:18.960Z,97737.09
2022-08-03T02:35:24.702Z,97731.81
2022-08-03T02:45:28.718Z,97735.16
2022-08-03T02:55:34.187Z,97715.66
2022-08-03T03:05:52.072Z,97717.78
2022-08-03T03:16:01.880Z,97713.94
2022-08-03T03:26:05.577Z,97708.88
2022-08-03T03:36:08.958Z,97716.59
2022-08-03T03:46:13.706Z,97713.44
2022-08-03T03:56:15.946Z,97718.47
2022-08-03T04:06:37.341Z,97727.75
2022-08-03T04:16:44.052Z,97736.59
2022-08-03T04:26:52.579Z,97731.03
2022-08-03T04:37:03.717Z,97731.09
2022-08-03T04:47:07.505Z,97740.00
2022-08-03T04:57:22.394Z,97746.09
2022-08-03T05:07:36.144Z,97734.88
2022-08-03T05:17:39.346Z,97750.16
2022-08-03T05:27:41.857Z,97743.50
2022-08-03T05:37:54.525Z,97740.53
2022-08-03T05:48:00.910Z,97763.22
2022-08-03T05:58:04.169Z,97763.00
2022-08-03T06:08:07.324Z,97767.50
2022-08-03T06:18:10.000Z,97768.06
2022-08-03T06:28:42.492Z,97773.69
2022-08-03T06:38:40.499Z,97770.66
2022-08-03T06:48:44.563Z,97769.53
2022-08-03T06:58:47.930Z,97783.28
2022-08-03T07:08:52.914Z,97777.25
2022-08-03T07:18:57.529Z,97786.38
2022-08-03T07:29:01.878Z,97788.13
2022-08-03T07:39:18.707Z,97793.31
2022-08-03T07:49:21.825Z,97799.03
2022-08-03T07:59:24.237Z,97789.81
2022-08-03T08:09:28.143Z,97787.69
2022-08-03T08:19:31.886Z,97782.19
2022-08-03T08:40:14.514Z,97781.81
2022-08-03T08:50:27.902Z,97779.69
2022-08-03T09:00:31.803Z,97776.50
2022-08-03T09:10:35.388Z,97776.00
2022-08-03T09:20:40.152Z,97780.63
2022-08-03T09:30:47.168Z,97780.97
2022-08-03T09:41:51.928Z,97777.72
2022-08-03T09:52:31.766Z,97762.78
2022-08-03T10:02:40.045Z,97766.53
2022-08-03T10:12:45.711Z,97756.66
2022-08-03T10:22:50.026Z,97761.03
2022-08-03T10:33:03.595Z,97742.59
2022-08-03T10:55:20.677Z,97729.31
2022-08-03T11:05:49.757Z,97709.88
2022-08-03T11:16:02.260Z,97707.59
2022-08-03T11:26:27.151Z,97695.66
2022-08-03T11:36:33.439Z,97695.19
2022-08-03T11:46:43.009Z,97690.41
2022-08-03T11:56:49.860Z,97687.28
2022-08-03T12:07:04.489Z,97687.03
2022-08-03T12:17:08.952Z,97679.97
2022-08-03T12:27:32.896Z,97662.56
2022-08-03T12:37:40.093Z,97667.31
2022-08-03T12:48:02.386Z,97652.94
2022-08-03T12:58:08.708Z,97655.34
2022-08-03T13:08:25.603Z,97647.25
2022-08-03T13:18:36.162Z,97652.69
2022-08-03T13:28:43.825Z,97650.19
2022-08-03T13:38:48.512Z,97639.91
2022-08-03T13:48:54.661Z,97632.94
2022-08-03T14:00:08.795Z,97633.94
2022-08-03T14:10:03.125Z,97630.16
2022-08-03T14:20:37.512Z,97622.31
2022-08-03T14:30:36.021Z,97608.28
2022-08-03T14:40:43.099Z,97610.81
2022-08-03T14:50:50.971Z,97595.97
2022-08-03T15:00:56.785Z,97595.00
2022-08-03T15:11:09.286Z,97583.34
2022-08-03T15:21:16.610Z,97569.53
2022-08-03T15:31:38.086Z,97553.31
2022-08-03T15:41:43.228Z,97537.53
2022-08-03T15:51:46.721Z,97529.00
2022-08-03T16:13:00.842Z,97516.28
2022-08-03T16:23:15.223Z,97508.44
2022-08-03T16:33:45.082Z,97503.00
2022-08-03T16:43:57.078Z,97507.66
2022-08-03T16:54:07.374Z,97504.41
2022-08-03T17:04:14.920Z,97499.16
2022-08-03T17:14:29.286Z,97497.94
2022-08-03T17:24:40.803Z,97489.94
2022-08-03T17:34:49.973Z,97477.44
2022-08-03T17:45:06.693Z,97472.03
2022-08-03T17:55:58.552Z,97476.84
2022-08-03T18:06:12.934Z,97480.81
2022-08-03T18:16:25.038Z,97476.38
2022-08-03T18:26:30.464Z,97484.13
2022-08-03T18:36:38.112Z,97488.66
2022-08-03T18:47:06.974Z,97483.91
2022-08-03T18:57:20.228Z,97488.63
2022-08-03T19:07:35.848Z,97495.66
2022-08-03T19:17:52.547Z,97499.00
2022-08-03T19:28:02.723Z,97492.84
2022-08-03T19:38:11.612Z,97496.94
2022-08-03T19:48:20.954Z,97507.28
2022-08-03T19:58:32.515Z,97505.59
2022-08-03T20:08:37.991Z,97511.78
2022-08-03T20:18:48.233Z,97513.00
2022-08-03T20:28:53.733Z,97515.47
2022-08-03T20:38:58.352Z,97504.16
2022-08-03T20:49:03.806Z,97503.53
2022-08-03T20:59:14.998Z,97498.97
2022-08-03T21:09:20.591Z,97502.97
2022-08-03T21:19:30.936Z,97503.25
2022-08-03T21:29:52.969Z,97498.06
2022-08-03T21:39:57.457Z,97492.13
2022-08-03T21:50:08.929Z,97500.31
2022-08-03T22:00:24.041Z,97501.78
2022-08-03T22:10:29.160Z,97501.72
2022-08-03T22:20:32.224Z,97514.19
2022-08-03T22:30:35.670Z,97523.81
2022-08-03T22:40:39.344Z,97516.72
2022-08-03T22:50:46.588Z,97525.56
2022-08-03T23:01:03.488Z,97527.81
2022-08-03T23:11:10.976Z,97528.44
2022-08-03T23:21:15.322Z,97521.97
2022-08-03T23:31:19.732Z,97521.00
2022-08-03T23:41:23.069Z,97528.03
2022-08-03T23:51:47.253Z,97528.22
